createdAt,value
2018-06-25T14:06:28.182Z,6.80
2018-06-25T14:07:00.851Z,7.95
2018-06-25T14:07:33.502Z,5.90
2018-06-25T14:08:06.243Z,7.10
2018-06-25T14:08:38.929Z,5.92
2018-06-25T14:09:12.046Z,5.40
2018-06-25T14:09:44.787Z,4.85
2018-06-25T14:10:17.443Z,5.05
2018-06-25T14:10:50.147Z,6.15
2018-06-25T14:11:22.843Z,5.92
2018-06-25T14:11:55.550Z,9.25
2018-06-25T14:12:28.296Z,6.53
2018-06-25T14:13:00.999Z,5.90
2018-06-25T14:13:33.710Z,10.60
2018-06-25T14:14:07.212Z,4.30
2018-06-25T14:14:39.938Z,6.03
2018-06-25T14:15:12.630Z,4.28
2018-06-25T14:15:45.371Z,7.95
2018-06-25T14:16:18.109Z,9.03
2018-06-25T14:16:50.877Z,7.90
2018-06-25T14:17:23.554Z,5.20
2018-06-25T14:17:56.279Z,5.22
2018-06-25T14:18:29.074Z,5.28
2018-06-25T14:19:01.819Z,11.63
2018-06-25T14:19:34.551Z,8.10
2018-06-25T14:20:07.312Z,6.53
2018-06-25T14:20:40.019Z,6.70
2018-06-25T14:21:12.747Z,6.77
2018-06-25T14:21:45.448Z,5.93
2018-06-25T14:22:18.174Z,8.93
2018-06-25T14:22:50.932Z,6.73
2018-06-25T14:23:23.647Z,7.70
2018-06-25T14:24:01.940Z,4.80
2018-06-25T14:24:40.514Z,8.00
2018-06-25T14:25:13.547Z,7.17
2018-06-25T14:25:51.978Z,6.97
2018-06-25T14:26:29.199Z,4.53
2018-06-25T14:27:07.675Z,6.37
2018-06-25T14:27:46.170Z,6.37
2018-06-25T14:28:32.938Z,3.90
2018-06-25T14:29:10.222Z,7.23
2018-06-25T14:29:42.895Z,6.10
2018-06-25T14:30:21.312Z,6.40
2018-06-25T14:30:59.587Z,5.40
2018-06-25T14:31:32.291Z,6.60
2018-06-25T14:32:14.516Z,4.30
2018-06-25T14:32:49.706Z,4.10
2018-06-25T14:33:27.955Z,4.67
2018-06-25T14:34:06.327Z,3.63
2018-06-25T14:34:39.298Z,8.00
2018-06-25T14:35:15.444Z,8.23
2018-06-25T14:35:48.131Z,4.40
2018-06-25T14:36:20.819Z,5.10
2018-06-25T14:36:53.495Z,4.63
2018-06-25T14:37:26.172Z,6.20
2018-06-25T14:37:58.826Z,5.20
2018-06-25T14:38:31.497Z,5.23
2018-06-25T14:39:07.826Z,4.83
2018-06-25T14:39:40.566Z,5.50
2018-06-25T14:40:13.265Z,6.33
2018-06-25T14:40:45.951Z,4.70
2018-06-25T14:41:18.630Z,4.30
2018-06-25T14:41:51.310Z,5.63
2018-06-25T14:42:23.994Z,5.97
2018-06-25T14:42:56.698Z,5.57
2018-06-25T14:43:29.450Z,6.23
2018-06-25T14:44:02.351Z,8.60
2018-06-25T14:44:35.054Z,4.97
2018-06-25T14:45:07.937Z,5.63
2018-06-25T14:45:40.631Z,5.50
2018-06-25T14:46:13.294Z,4.80
2018-06-25T14:46:45.983Z,6.53
2018-06-25T14:47:18.925Z,3.83
2018-06-25T14:47:51.618Z,5.23
2018-06-25T14:48:24.340Z,5.00
2018-06-25T14:48:57.002Z,4.60
2018-06-25T14:49:29.682Z,5.97
2018-06-25T14:50:02.407Z,6.00
2018-06-25T14:50:35.091Z,3.10
2018-06-25T14:51:07.763Z,5.30
2018-06-25T14:51:40.423Z,6.33
2018-06-25T14:52:13.110Z,3.83
2018-06-25T14:52:45.787Z,3.60
2018-06-25T14:53:18.463Z,3.60
2018-06-25T14:53:51.147Z,10.33
2018-06-25T14:54:23.834Z,3.93
2018-06-25T14:54:56.459Z,3.20
2018-06-25T14:55:29.133Z,2.77
2018-06-25T14:56:01.758Z,3.50
2018-06-25T14:56:34.443Z,3.23
2018-06-25T14:57:07.135Z,5.13
2018-06-25T14:57:39.820Z,3.87
2018-06-25T14:58:12.475Z,5.97
2018-06-25T14:58:45.149Z,4.30
2018-06-25T14:59:17.858Z,3.57
2018-06-25T14:59:50.510Z,7.90
2018-06-25T15:00:23.174Z,3.67
2018-06-25T15:00:55.898Z,13.10
2018-06-25T15:01:28.587Z,3.80
2018-06-25T15:02:01.319Z,4.23
2018-06-25T15:02:33.994Z,3.93
2018-06-25T15:03:06.662Z,4.80
2018-06-25T15:03:39.334Z,6.43
2018-06-25T15:04:12.039Z,3.00
2018-06-25T15:04:44.706Z,4.90
2018-06-25T15:05:17.434Z,5.00
2018-06-25T15:05:50.138Z,3.40
2018-06-25T15:06:22.859Z,6.37
2018-06-25T15:06:55.553Z,3.57
2018-06-25T15:07:28.226Z,2.87
2018-06-25T15:08:00.930Z,8.93
2018-06-25T15:08:33.622Z,3.63
2018-06-25T15:09:08.331Z,6.07
2018-06-25T15:09:41.011Z,4.20
2018-06-25T15:10:13.771Z,4.37
2018-06-25T15:10:46.462Z,4.90
2018-06-25T15:11:19.139Z,2.50
2018-06-25T15:11:51.850Z,6.07
2018-06-25T15:12:24.554Z,4.67
2018-06-25T15:12:57.238Z,4.80
2018-06-25T15:13:29.958Z,8.00
2018-06-25T15:14:02.718Z,3.37
2018-06-25T15:14:35.395Z,4.10
2018-06-25T15:15:08.094Z,11.23
2018-06-25T15:15:40.762Z,2.93
2018-06-25T15:16:13.474Z,7.40
2018-06-25T15:16:46.150Z,3.73
2018-06-25T15:17:18.858Z,3.97
2018-06-25T15:17:51.562Z,8.77
2018-06-25T15:18:24.225Z,6.33
2018-06-25T15:18:56.919Z,7.13
2018-06-25T15:19:29.598Z,4.23
2018-06-25T15:20:02.396Z,4.10
2018-06-25T15:20:35.091Z,3.57
2018-06-25T15:21:07.826Z,3.57
2018-06-25T15:21:40.511Z,3.10
2018-06-25T15:22:13.253Z,4.67
2018-06-25T15:22:45.901Z,2.60
2018-06-25T15:23:18.599Z,5.30
2018-06-25T15:23:51.282Z,9.80
2018-06-25T15:24:23.950Z,4.27
2018-06-25T15:24:56.618Z,3.93
2018-06-25T15:25:29.282Z,4.73
2018-06-25T15:26:02.068Z,2.63
2018-06-25T15:26:34.750Z,3.63
2018-06-25T15:27:07.454Z,9.97
2018-06-25T15:27:40.275Z,4.20
2018-06-25T15:28:12.982Z,3.30
2018-06-25T15:28:45.651Z,3.83
2018-06-25T15:29:18.330Z,4.77
2018-06-25T15:29:50.925Z,3.43
2018-06-25T15:30:23.578Z,3.17
2018-06-25T15:30:56.250Z,2.37
2018-06-25T15:31:28.914Z,3.33
2018-06-25T15:32:01.547Z,9.57
2018-06-25T15:32:34.211Z,6.47
2018-06-25T15:33:06.895Z,5.90
2018-06-25T15:33:39.678Z,8.50
2018-06-25T15:34:12.363Z,4.27
2018-06-25T15:34:45.043Z,5.50
2018-06-25T15:35:17.750Z,7.00
2018-06-25T15:35:50.419Z,3.23
2018-06-25T15:36:23.080Z,2.90
2018-06-25T15:36:55.738Z,3.50
2018-06-25T15:37:28.874Z,5.93
2018-06-25T15:38:01.562Z,3.10
2018-06-25T15:38:34.157Z,6.97
2018-06-25T15:39:08.654Z,6.47
2018-06-25T15:39:41.374Z,4.60
2018-06-25T15:40:14.107Z,4.33
2018-06-25T15:40:46.759Z,4.93
2018-06-25T15:41:19.495Z,2.53
2018-06-25T15:41:52.194Z,3.10
2018-06-25T15:42:25.056Z,4.53
2018-06-25T15:42:57.750Z,5.03
2018-06-25T15:43:30.509Z,14.87
2018-06-25T15:44:03.686Z,15.50
2018-06-25T15:44:36.399Z,5.83
2018-06-25T15:45:09.087Z,11.10
2018-06-25T15:45:41.771Z,11.87
2018-06-25T15:46:14.519Z,6.83
2018-06-25T15:46:47.174Z,10.23
2018-06-25T15:47:19.841Z,4.87
2018-06-25T15:47:52.582Z,17.03
2018-06-25T15:48:25.266Z,7.43
2018-06-25T15:48:57.974Z,4.97
2018-06-25T15:49:30.807Z,5.70
2018-06-25T15:50:04.027Z,10.03
2018-06-25T15:50:36.694Z,8.17
2018-06-25T15:51:09.363Z,8.43
2018-06-25T15:51:42.023Z,5.23
2018-06-25T15:52:14.746Z,6.87
2018-06-25T15:52:47.410Z,5.03
2018-06-25T15:53:20.076Z,3.70
2018-06-25T15:53:52.794Z,7.07
2018-06-25T15:54:25.539Z,6.20
2018-06-25T15:54:58.222Z,6.40
2018-06-25T15:55:30.926Z,6.97
2018-06-25T15:56:03.638Z,4.87
2018-06-25T15:56:36.325Z,7.33
2018-06-25T15:57:09.028Z,4.90
2018-06-25T15:57:41.702Z,2.00
2018-06-25T15:58:14.379Z,5.43
2018-06-25T15:58:47.064Z,2.90
2018-06-25T15:59:19.747Z,3.73
2018-06-25T15:59:52.488Z,3.87
2018-06-25T16:00:25.022Z,3.90
2018-06-25T16:00:57.774Z,7.00
2018-06-25T16:01:30.473Z,3.23
2018-06-25T16:02:03.159Z,3.73
2018-06-25T16:02:35.822Z,3.10
2018-06-25T16:03:08.513Z,3.93
2018-06-25T16:03:41.190Z,15.43
2018-06-25T16:04:13.894Z,3.73
2018-06-25T16:04:46.578Z,6.10
2018-06-25T16:05:19.246Z,3.80
2018-06-25T16:05:51.921Z,2.00
2018-06-25T16:06:24.538Z,4.17
2018-06-25T16:06:57.410Z,4.43
2018-06-25T16:07:30.083Z,2.73
2018-06-25T16:08:02.765Z,1.83
2018-06-25T16:08:35.439Z,2.70
2018-06-25T16:09:08.122Z,3.63
2018-06-25T16:09:40.775Z,8.07
2018-06-25T16:10:13.435Z,8.07
2018-06-25T16:10:46.117Z,7.30
2018-06-25T16:11:18.772Z,6.30
2018-06-25T16:11:51.455Z,4.33
2018-06-25T16:12:24.153Z,6.63
2018-06-25T16:12:56.826Z,4.13
2018-06-25T16:13:29.512Z,1.87
2018-06-25T16:14:02.710Z,7.90
2018-06-25T16:14:35.371Z,7.47
2018-06-25T16:15:08.047Z,2.80
2018-06-25T16:15:40.746Z,2.20
2018-06-25T16:16:13.405Z,4.47
2018-06-25T16:16:46.073Z,2.97
2018-06-25T16:17:18.783Z,8.07
2018-06-25T16:17:51.452Z,3.00
2018-06-25T16:18:24.135Z,2.70
2018-06-25T16:18:56.815Z,4.93
2018-06-25T16:19:29.498Z,3.80
2018-06-25T16:20:02.240Z,3.10
2018-06-25T16:20:34.934Z,4.10
2018-06-25T16:21:07.619Z,7.30
2018-06-25T16:21:40.460Z,8.93
2018-06-25T16:22:13.146Z,4.23
2018-06-25T16:22:45.870Z,5.03
2018-06-25T16:23:18.566Z,4.00
2018-06-25T16:23:51.231Z,4.50
2018-06-25T16:24:23.942Z,5.40
2018-06-25T16:24:56.639Z,4.13
2018-06-25T16:25:29.454Z,5.30
2018-06-25T16:26:02.755Z,5.00
2018-06-25T16:26:35.443Z,2.53
2018-06-25T16:27:08.130Z,2.33
2018-06-25T16:27:40.834Z,3.77
2018-06-25T16:28:13.532Z,11.13
2018-06-25T16:28:46.435Z,3.20
2018-06-25T16:29:18.853Z,6.57
2018-06-25T16:29:51.593Z,4.43
2018-06-25T16:30:24.298Z,11.17
2018-06-25T16:30:56.957Z,3.00
2018-06-25T16:31:29.638Z,4.43
2018-06-25T16:32:02.318Z,2.33
2018-06-25T16:32:34.987Z,3.00
2018-06-25T16:33:07.751Z,5.13
2018-06-25T16:33:40.762Z,7.63
2018-06-25T16:34:13.538Z,8.00
2018-06-25T16:34:46.103Z,4.77
2018-06-25T16:35:18.777Z,2.70
2018-06-25T16:35:51.462Z,3.60
2018-06-25T16:36:24.158Z,3.23
2018-06-25T16:36:56.882Z,10.28
2018-06-25T16:37:29.578Z,3.12
2018-06-25T16:38:02.289Z,6.23
2018-06-25T16:38:34.982Z,3.97
2018-06-25T16:39:09.946Z,5.60
2018-06-25T16:39:42.647Z,5.23
2018-06-25T16:40:15.334Z,3.37
2018-06-25T16:40:48.120Z,5.08
2018-06-25T16:41:20.799Z,2.53
2018-06-25T16:41:53.486Z,2.93
2018-06-25T16:42:26.160Z,5.43
2018-06-25T16:42:58.838Z,2.03
2018-06-25T16:43:31.510Z,6.60
2018-06-25T16:44:04.374Z,6.43
2018-06-25T16:44:37.156Z,9.77
2018-06-25T16:45:09.846Z,6.27
2018-06-25T16:45:42.803Z,3.43
2018-06-25T16:46:15.523Z,8.67
2018-06-25T16:46:48.202Z,3.63
2018-06-25T16:47:20.905Z,4.47
2018-06-25T16:47:53.615Z,4.30
2018-06-25T16:48:26.280Z,9.60
2018-06-25T16:48:58.979Z,5.85
2018-06-25T16:49:31.662Z,10.58
2018-06-25T16:50:04.914Z,4.60
2018-06-25T16:50:37.674Z,10.60
2018-06-25T16:51:10.370Z,3.95
2018-06-25T16:51:43.046Z,2.70
2018-06-25T16:52:15.742Z,7.65
2018-06-25T16:52:48.422Z,6.05
2018-06-25T16:53:21.110Z,3.77
2018-06-25T16:53:53.801Z,5.12
2018-06-25T16:54:26.490Z,6.05
2018-06-25T16:54:59.158Z,7.33
2018-06-25T16:55:31.865Z,7.05
2018-06-25T16:56:04.618Z,11.25
2018-06-25T16:56:37.295Z,6.05
2018-06-25T16:57:09.982Z,4.97
2018-06-25T16:57:42.676Z,2.40
2018-06-25T16:58:15.363Z,4.83
2018-06-25T16:58:48.043Z,2.60
2018-06-25T16:59:20.727Z,2.98
2018-06-25T16:59:53.412Z,3.02
2018-06-25T17:00:26.054Z,3.02
2018-06-25T17:00:58.771Z,3.95
2018-06-25T17:01:31.595Z,7.20
2018-06-25T17:02:04.359Z,5.70
2018-06-25T17:02:37.055Z,5.70
2018-06-25T17:03:09.763Z,2.35
2018-06-25T17:03:42.506Z,5.50
2018-06-25T17:04:15.190Z,4.92
2018-06-25T17:04:47.871Z,3.40
2018-06-25T17:05:20.575Z,5.90
2018-06-25T17:05:53.271Z,11.80
2018-06-25T17:06:25.983Z,6.50
2018-06-25T17:06:58.762Z,2.40
2018-06-25T17:07:31.430Z,4.80
2018-06-25T17:08:04.431Z,2.10
2018-06-25T17:08:37.098Z,7.25
2018-06-25T17:09:11.352Z,4.47
2018-06-25T17:09:44.042Z,5.60
2018-06-25T17:10:16.759Z,4.85
2018-06-25T17:10:49.463Z,2.70
2018-06-25T17:11:22.190Z,8.30
2018-06-25T17:11:54.918Z,8.18
2018-06-25T17:12:27.634Z,4.97
2018-06-25T17:13:00.335Z,3.35
2018-06-25T17:13:33.059Z,10.43
2018-06-25T17:14:05.678Z,6.92
2018-06-25T17:14:38.358Z,7.45
2018-06-25T17:15:11.143Z,9.28
2018-06-25T17:15:43.858Z,6.75
2018-06-25T17:16:16.795Z,5.20
2018-06-25T17:16:49.478Z,3.10
2018-06-25T17:17:22.213Z,5.92
2018-06-25T17:17:54.898Z,8.03
2018-06-25T17:18:27.606Z,8.63
2018-06-25T17:19:00.230Z,10.82
2018-06-25T17:19:32.960Z,4.95
2018-06-25T17:20:05.726Z,5.40
2018-06-25T17:20:38.390Z,3.98
2018-06-25T17:21:11.071Z,4.17
2018-06-25T17:21:43.755Z,2.83
2018-06-25T17:22:16.418Z,6.87
2018-06-25T17:22:49.111Z,4.97
2018-06-25T17:23:21.787Z,2.95
2018-06-25T17:23:54.377Z,3.62
2018-06-25T17:24:27.082Z,4.62
2018-06-25T17:24:59.788Z,5.47
2018-06-25T17:25:32.478Z,3.30
2018-06-25T17:26:05.250Z,4.37
2018-06-25T17:26:37.934Z,7.87
2018-06-25T17:27:10.606Z,4.28
2018-06-25T17:27:43.282Z,2.72
2018-06-25T17:28:16.017Z,6.92
2018-06-25T17:28:48.696Z,4.67
2018-06-25T17:29:21.390Z,3.77
2018-06-25T17:29:54.087Z,6.47
2018-06-25T17:30:26.750Z,3.08
2018-06-25T17:30:59.423Z,6.15
2018-06-25T17:31:32.115Z,2.72
2018-06-25T17:32:04.883Z,6.60
2018-06-25T17:32:37.550Z,3.87
2018-06-25T17:33:10.316Z,3.35
2018-06-25T17:33:43.014Z,4.67
2018-06-25T17:34:15.687Z,4.50
2018-06-25T17:34:48.358Z,4.17
2018-06-25T17:35:21.058Z,7.30
2018-06-25T17:35:53.871Z,6.10
2018-06-25T17:36:27.266Z,5.60
2018-06-25T17:36:59.931Z,3.90
2018-06-25T17:37:32.579Z,9.15
2018-06-25T17:38:05.285Z,5.00
2018-06-25T17:38:38.091Z,5.47
2018-06-25T17:39:10.859Z,4.85
2018-06-25T17:39:43.530Z,8.38
2018-06-25T17:40:16.203Z,4.90
2018-06-25T17:40:48.883Z,11.83
2018-06-25T17:41:21.562Z,11.75
2018-06-25T17:41:54.240Z,7.12
2018-06-25T17:42:26.943Z,5.62
2018-06-25T17:42:59.624Z,7.35
2018-06-25T17:43:32.303Z,3.65
2018-06-25T17:44:05.019Z,3.65
2018-06-25T17:44:37.646Z,4.25
2018-06-25T17:45:10.314Z,5.45
2018-06-25T17:45:43.015Z,7.55
2018-06-25T17:46:15.702Z,5.05
2018-06-25T17:46:48.378Z,5.85
2018-06-25T17:47:21.074Z,6.15
2018-06-25T17:47:53.768Z,4.08
2018-06-25T17:48:26.598Z,5.67
2018-06-25T17:48:59.164Z,9.45
2018-06-25T17:49:32.078Z,8.80
2018-06-25T17:50:05.109Z,5.53
2018-06-25T17:50:37.701Z,6.97
2018-06-25T17:51:10.390Z,4.00
2018-06-25T17:51:43.114Z,3.90
2018-06-25T17:52:15.834Z,2.70
2018-06-25T17:52:48.494Z,4.40
2018-06-25T17:53:21.174Z,5.30
2018-06-25T17:53:53.842Z,5.40
2018-06-25T17:54:26.873Z,7.95
2018-06-25T17:54:59.556Z,4.60
2018-06-25T17:55:32.262Z,3.15
2018-06-25T17:56:05.132Z,4.92
2018-06-25T17:56:37.800Z,4.70
2018-06-25T17:57:10.478Z,3.00
2018-06-25T17:57:43.158Z,5.58
2018-06-25T17:58:15.984Z,5.47
2018-06-25T17:58:48.782Z,5.28
2018-06-25T17:59:21.560Z,6.62
2018-06-25T17:59:54.341Z,9.38
2018-06-25T18:00:27.038Z,5.17
2018-06-25T18:00:59.916Z,4.45
2018-06-25T18:01:32.610Z,3.47
2018-06-25T18:02:05.359Z,8.15
2018-06-25T18:02:38.075Z,4.55
2018-06-25T18:03:10.754Z,6.80
2018-06-25T18:03:43.898Z,7.55
2018-06-25T18:04:16.579Z,5.47
2018-06-25T18:04:49.310Z,7.20
2018-06-25T18:05:21.987Z,6.40
2018-06-25T18:05:54.659Z,4.37
2018-06-25T18:06:27.382Z,3.80
2018-06-25T18:07:00.088Z,7.35
2018-06-25T18:07:32.677Z,4.30
2018-06-25T18:08:05.385Z,5.75
2018-06-25T18:08:38.078Z,5.95
2018-06-25T18:09:11.528Z,5.67
2018-06-25T18:09:44.202Z,12.03
2018-06-25T18:10:16.922Z,4.00
2018-06-25T18:10:49.623Z,5.00
2018-06-25T18:11:22.419Z,9.85
2018-06-25T18:11:55.174Z,7.60
2018-06-25T18:12:27.859Z,6.97
2018-06-25T18:13:00.527Z,5.30
2018-06-25T18:13:33.217Z,6.83
2018-06-25T18:14:05.930Z,8.03
2018-06-25T18:14:38.594Z,6.10
2018-06-25T18:15:11.330Z,7.67
2018-06-25T18:15:43.991Z,4.42
2018-06-25T18:16:16.647Z,9.80
2018-06-25T18:16:49.322Z,12.63
2018-06-25T18:17:22.026Z,5.15
2018-06-25T18:17:54.706Z,13.60
2018-06-25T18:18:27.374Z,11.90
2018-06-25T18:19:00.067Z,3.77
2018-06-25T18:19:32.665Z,5.35
2018-06-25T18:20:05.385Z,9.05
2018-06-25T18:20:38.099Z,6.78
2018-06-25T18:21:10.783Z,4.87
2018-06-25T18:21:43.448Z,7.45
2018-06-25T18:22:16.125Z,8.25
2018-06-25T18:22:48.834Z,7.08
2018-06-25T18:23:21.511Z,6.80
2018-06-25T18:23:54.186Z,9.58
2018-06-25T18:24:26.858Z,9.68
2018-06-25T18:24:59.550Z,7.45
2018-06-25T18:25:32.226Z,5.90
2018-06-25T18:26:04.914Z,10.20
2018-06-25T18:26:37.618Z,14.07
2018-06-25T18:27:10.311Z,15.98
2018-06-25T18:27:43.030Z,7.45
2018-06-25T18:28:15.817Z,5.53
2018-06-25T18:28:48.454Z,6.47
2018-06-25T18:29:21.133Z,6.08
2018-06-25T18:29:53.830Z,6.20
2018-06-25T18:30:26.511Z,10.10
2018-06-25T18:30:59.210Z,4.42
2018-06-25T18:31:31.938Z,7.65
2018-06-25T18:32:04.651Z,11.68
2018-06-25T18:32:37.326Z,7.62
2018-06-25T18:33:10.069Z,5.83
2018-06-25T18:33:43.248Z,3.67
2018-06-25T18:34:15.887Z,8.88
2018-06-25T18:34:48.578Z,16.45
2018-06-25T18:35:21.234Z,11.88
2018-06-25T18:35:53.927Z,16.00
2018-06-25T18:36:26.619Z,36.50
2018-06-25T18:36:59.318Z,10.50
2018-06-25T18:37:32.060Z,4.50
2018-06-25T18:38:04.751Z,14.20
2018-06-25T18:38:37.447Z,6.87
2018-06-25T18:39:12.255Z,3.83
2018-06-25T18:39:44.911Z,5.00
2018-06-25T18:40:17.662Z,8.15
2018-06-25T18:40:50.376Z,15.30
2018-06-25T18:41:23.065Z,19.00
2018-06-25T18:41:55.734Z,10.25
2018-06-25T18:42:28.426Z,14.38
2018-06-25T18:43:01.110Z,6.15
2018-06-25T18:43:33.791Z,9.53
2018-06-25T18:44:06.487Z,60.50
2018-06-25T18:44:39.212Z,10.55
2018-06-25T18:45:11.859Z,16.30
2018-06-25T18:45:44.523Z,7.03
2018-06-25T18:46:17.223Z,8.83
2018-06-25T18:46:50.405Z,103.83
2018-06-25T18:47:23.070Z,14.85
2018-06-25T18:47:55.774Z,81.70
2018-06-25T18:48:28.491Z,8.80
2018-06-25T18:49:01.263Z,4.90
2018-06-25T18:49:33.986Z,7.70
2018-06-25T18:50:06.703Z,9.40
2018-06-25T18:50:39.395Z,5.65
2018-06-25T18:51:12.191Z,6.00
2018-06-25T18:51:44.874Z,6.50
2018-06-25T18:52:17.574Z,3.98
2018-06-25T18:52:50.266Z,6.95
2018-06-25T18:53:22.958Z,7.83
2018-06-25T18:53:55.642Z,8.45
2018-06-25T18:54:28.322Z,7.72
2018-06-25T18:55:00.990Z,5.08
2018-06-25T18:55:33.746Z,5.78
2018-06-25T18:56:06.479Z,7.50
2018-06-25T18:56:39.151Z,14.93
2018-06-25T18:57:11.873Z,6.33
2018-06-25T18:57:44.609Z,7.67
2018-06-25T18:58:17.343Z,7.78
2018-06-25T18:58:50.031Z,19.05
2018-06-25T18:59:22.692Z,9.45
2018-06-25T18:59:55.371Z,8.15
2018-06-25T19:00:28.050Z,6.72
2018-06-25T19:01:00.771Z,4.40
2018-06-25T19:01:33.467Z,10.82
2018-06-25T19:02:06.150Z,4.00
2018-06-25T19:02:38.888Z,6.87
2018-06-25T19:03:11.578Z,5.05
2018-06-25T19:03:44.322Z,8.78
2018-06-25T19:04:16.998Z,4.90
2018-06-25T19:04:49.679Z,4.85
2018-06-25T19:05:22.497Z,8.38
2018-06-25T19:05:55.195Z,4.30
2018-06-25T19:06:27.883Z,9.58
2018-06-25T19:07:30.885Z,5.40
2018-06-25T19:08:03.547Z,8.10
2018-06-25T19:08:36.223Z,5.62
2018-06-25T19:09:10.822Z,13.32
2018-06-25T19:09:43.126Z,9.85
2018-06-25T19:10:15.853Z,7.08
2018-06-25T19:10:48.562Z,4.33
2018-06-25T19:11:21.230Z,7.10
2018-06-25T19:11:53.927Z,4.22
2018-06-25T19:12:26.651Z,7.58
2018-06-25T19:12:59.475Z,7.12
2018-06-25T19:13:32.130Z,4.67
2018-06-25T19:14:04.819Z,6.28
2018-06-25T19:14:37.503Z,6.33
2018-06-25T19:15:10.207Z,3.95
2018-06-25T19:15:42.895Z,7.53
2018-06-25T19:16:15.579Z,4.70
2018-06-25T19:16:48.262Z,9.13
2018-06-25T19:17:20.966Z,8.80
2018-06-25T19:17:53.881Z,5.20
2018-06-25T19:18:26.546Z,6.40
2018-06-25T19:18:59.377Z,8.73
2018-06-25T19:19:32.027Z,10.88
2018-06-25T19:20:04.986Z,9.10
2018-06-25T19:20:37.655Z,6.83
2018-06-25T19:21:10.361Z,9.58
2018-06-25T19:21:43.040Z,12.10
2018-06-25T19:22:15.698Z,7.55
2018-06-25T19:22:48.383Z,6.12
2018-06-25T19:23:21.060Z,6.75
2018-06-25T19:23:53.855Z,8.40
2018-06-25T19:24:26.533Z,7.83
2018-06-25T19:24:59.206Z,6.00
2018-06-25T19:25:31.887Z,6.70
2018-06-25T19:26:04.689Z,6.60
2018-06-25T19:26:37.415Z,6.55
2018-06-25T19:27:10.026Z,9.48
2018-06-25T19:27:42.742Z,5.35
2018-06-25T19:28:15.430Z,8.55
2018-06-25T19:28:48.124Z,8.70
2018-06-25T19:29:20.815Z,9.25
2018-06-25T19:29:53.502Z,12.15
2018-06-25T19:30:26.216Z,5.87
2018-06-25T19:30:58.910Z,7.50
2018-06-25T19:31:31.635Z,7.47
2018-06-25T19:32:04.392Z,7.15
2018-06-25T19:32:37.126Z,6.78
2018-06-25T19:33:09.943Z,10.30
2018-06-25T19:33:42.662Z,11.78
2018-06-25T19:34:15.322Z,8.30
2018-06-25T19:34:48.007Z,8.63
2018-06-25T19:35:20.707Z,4.97
2018-06-25T19:35:53.386Z,16.25
2018-06-25T19:36:26.074Z,5.35
2018-06-25T19:36:58.767Z,7.03
2018-06-25T19:37:31.631Z,9.75
2018-06-25T19:38:04.350Z,6.65
2018-06-25T19:38:37.022Z,3.62
2018-06-25T19:39:11.408Z,8.53
2018-06-25T19:39:44.082Z,8.55
2018-06-25T19:40:16.818Z,6.55
2018-06-25T19:40:49.466Z,8.85
2018-06-25T19:41:22.132Z,9.30
2018-06-25T19:41:54.802Z,3.90
2018-06-25T19:42:27.547Z,4.97
2018-06-25T19:43:00.222Z,6.90
2018-06-25T19:43:32.894Z,7.03
2018-06-25T19:44:05.630Z,9.88
2018-06-25T19:44:38.314Z,6.70
2018-06-25T19:45:10.997Z,5.03
2018-06-25T19:45:43.672Z,5.83
2018-06-25T19:46:16.351Z,8.03
2018-06-25T19:46:49.086Z,7.83
2018-06-25T19:47:22.484Z,7.08
2018-06-25T19:47:55.175Z,7.67
2018-06-25T19:48:27.854Z,11.50
2018-06-25T19:49:00.546Z,5.35
2018-06-25T19:49:33.232Z,9.08
2018-06-25T19:50:06.218Z,6.72
2018-06-25T19:50:38.902Z,5.95
2018-06-25T19:51:11.629Z,8.20
2018-06-25T19:51:44.221Z,6.83
2018-06-25T19:52:16.919Z,7.97
2018-06-25T19:52:49.606Z,8.20
2018-06-25T19:53:22.273Z,8.55
2018-06-25T19:53:54.987Z,4.35
2018-06-25T19:54:27.663Z,7.90
2018-06-25T19:55:00.253Z,5.97
2018-06-25T19:55:32.958Z,12.47
2018-06-25T19:56:05.626Z,8.40
2018-06-25T19:56:38.338Z,7.62
2018-06-25T19:57:10.953Z,5.00
2018-06-25T19:57:43.638Z,7.40
2018-06-25T19:58:16.318Z,6.58
2018-06-25T19:58:48.990Z,7.30
2018-06-25T19:59:21.683Z,6.92
2018-06-25T19:59:54.390Z,5.28
2018-06-25T20:00:27.075Z,9.20
2018-06-25T20:00:59.819Z,8.93
2018-06-25T20:01:32.515Z,4.28
2018-06-25T20:02:05.231Z,6.55
2018-06-25T20:02:38.038Z,15.25
2018-06-25T20:03:10.698Z,9.65
2018-06-25T20:03:43.362Z,6.90
2018-06-25T20:04:16.203Z,9.45
2018-06-25T20:04:48.882Z,7.45
2018-06-25T20:05:21.746Z,4.62
2018-06-25T20:05:54.457Z,6.53
2018-06-25T20:06:27.130Z,8.03
2018-06-25T20:06:59.818Z,9.60
2018-06-25T20:07:32.535Z,15.78
2018-06-25T20:08:05.270Z,5.90
2018-06-25T20:08:37.954Z,7.42
2018-06-25T20:09:11.886Z,7.30
2018-06-25T20:09:44.606Z,6.92
2018-06-25T20:10:17.303Z,8.35
2018-06-25T20:10:49.998Z,9.30
2018-06-25T20:11:22.676Z,6.42
2018-06-25T20:11:55.429Z,4.67
2018-06-25T20:12:28.124Z,5.97
2018-06-25T20:13:00.794Z,9.45
2018-06-25T20:13:33.475Z,8.30
2018-06-25T20:14:06.218Z,8.15
2018-06-25T20:14:38.927Z,9.35
2018-06-25T20:15:11.633Z,8.08
2018-06-25T20:15:44.319Z,7.53
2018-06-25T20:16:16.975Z,7.75
2018-06-25T20:16:49.696Z,8.45
2018-06-25T20:17:22.706Z,7.87
2018-06-25T20:17:55.390Z,6.35
2018-06-25T20:18:28.071Z,5.78
2018-06-25T20:19:00.879Z,8.00
2018-06-25T20:19:33.622Z,10.20
2018-06-25T20:20:06.545Z,7.53
2018-06-25T20:20:39.266Z,7.67
2018-06-25T20:21:11.946Z,11.68
2018-06-25T20:21:44.666Z,5.87
2018-06-25T20:22:17.469Z,7.90
2018-06-25T20:22:50.150Z,7.45
2018-06-25T20:23:22.863Z,7.22
2018-06-25T20:23:55.578Z,4.85
2018-06-25T20:24:28.264Z,6.90
2018-06-25T20:25:00.850Z,6.92
2018-06-25T20:25:33.582Z,7.12
2018-06-25T20:26:06.359Z,8.80
2018-06-25T20:26:39.122Z,6.22
2018-06-25T20:27:12.246Z,6.53
2018-06-25T20:27:44.846Z,6.95
2018-06-25T20:28:17.582Z,5.87
2018-06-25T20:28:50.270Z,6.20
2018-06-25T20:29:22.958Z,6.00
2018-06-25T20:29:55.655Z,9.20
2018-06-25T20:30:28.374Z,5.37
2018-06-25T20:31:01.115Z,10.25
2018-06-25T20:31:33.810Z,6.92
2018-06-25T20:32:06.939Z,6.78
2018-06-25T20:32:39.626Z,6.87
2018-06-25T20:33:12.311Z,7.85
2018-06-25T20:33:45.057Z,8.75
2018-06-25T20:34:17.723Z,7.80
2018-06-25T20:34:50.432Z,8.20
2018-06-25T20:35:23.103Z,4.75
2018-06-25T20:35:55.750Z,5.33
2018-06-25T20:36:28.515Z,7.65
2018-06-25T20:37:01.198Z,5.92
2018-06-25T20:37:33.898Z,4.25
2018-06-25T20:38:08.372Z,8.53
2018-06-25T20:38:41.078Z,9.40
2018-06-25T20:39:13.802Z,7.08
2018-06-25T20:39:46.490Z,6.37
2018-06-25T20:40:19.161Z,4.17
2018-06-25T20:40:51.851Z,8.23
2018-06-25T20:41:24.546Z,10.65
2018-06-25T20:41:57.235Z,4.78
2018-06-25T20:42:29.934Z,4.78
2018-06-25T20:43:02.595Z,5.67
2018-06-25T20:43:35.278Z,10.43
2018-06-25T20:44:07.974Z,4.92
2018-06-25T20:44:40.878Z,8.38
2018-06-25T20:45:13.549Z,4.40
2018-06-25T20:45:46.234Z,5.65
2018-06-25T20:46:18.898Z,4.87
2018-06-25T20:46:51.624Z,5.60
2018-06-25T20:47:24.281Z,4.55
2018-06-25T20:47:56.970Z,6.95
2018-06-25T20:48:29.686Z,6.17
2018-06-25T20:49:02.401Z,7.55
2018-06-25T20:49:35.107Z,4.37
2018-06-25T20:50:07.805Z,4.83
2018-06-25T20:50:40.474Z,7.37
2018-06-25T20:51:13.166Z,7.70
2018-06-25T20:51:45.894Z,7.40
2018-06-25T20:52:18.582Z,7.42
2018-06-25T20:52:51.259Z,5.53
2018-06-25T20:53:23.940Z,6.67
2018-06-25T20:53:56.623Z,6.22
2018-06-25T20:54:29.302Z,8.75
2018-06-25T20:55:02.019Z,7.97
2018-06-25T20:55:34.734Z,7.75
2018-06-25T20:56:07.467Z,6.12
2018-06-25T20:56:40.155Z,6.47
2018-06-25T20:57:12.766Z,7.87
2018-06-25T20:57:45.487Z,5.90
2018-06-25T20:58:18.162Z,7.58
2018-06-25T20:58:50.834Z,6.55
2018-06-25T20:59:23.518Z,6.45
2018-06-25T20:59:56.191Z,8.48
2018-06-25T21:00:28.918Z,5.35
2018-06-25T21:01:01.635Z,8.23
2018-06-25T21:01:35.102Z,6.00
2018-06-25T21:02:07.818Z,4.90
2018-06-25T21:02:40.494Z,6.15
2018-06-25T21:03:13.187Z,4.55
2018-06-25T21:03:45.870Z,6.25
2018-06-25T21:04:18.543Z,13.45
2018-06-25T21:04:51.223Z,6.80
2018-06-25T21:05:23.907Z,7.03
2018-06-25T21:05:56.592Z,6.45
2018-06-25T21:06:29.288Z,12.78
2018-06-25T21:07:01.983Z,8.43
2018-06-25T21:07:34.770Z,11.38
2018-06-25T21:08:07.450Z,15.93
2018-06-25T21:08:40.146Z,14.75
2018-06-25T21:09:12.859Z,13.30
2018-06-25T21:09:45.527Z,22.52
2018-06-25T21:10:18.242Z,25.85
2018-06-25T21:10:50.934Z,40.85
2018-06-25T21:11:23.714Z,44.63
2018-06-25T21:11:56.454Z,58.70
2018-06-25T21:12:29.130Z,90.97
2018-06-25T21:13:01.812Z,77.92
2018-06-25T21:13:34.523Z,71.85
2018-06-25T21:14:07.210Z,65.52
2018-06-25T21:14:39.878Z,53.15
2018-06-25T21:15:12.622Z,47.80
2018-06-25T21:15:45.310Z,42.20
2018-06-25T21:16:18.007Z,37.98
2018-06-25T21:16:50.762Z,30.65
2018-06-25T21:17:23.421Z,33.88
2018-06-25T21:17:56.183Z,24.95
2018-06-25T21:18:28.910Z,25.48
2018-06-25T21:19:01.668Z,34.78
2018-06-25T21:19:34.414Z,23.00
2018-06-25T21:20:07.143Z,17.60
2018-06-25T21:20:39.831Z,14.03
2018-06-25T21:21:12.523Z,17.67
2018-06-25T21:21:45.259Z,21.90
2018-06-25T21:22:17.974Z,18.37